Time;durP1;ratioP1;P1;durP2;ratioP2;P2;SDS_P1;SDS_P2;PMS_P1;PMS_P2;Temp;Humidity;BMP_temperature;BMP_pressure;BME280_temperature;BME280_humidity;BME280_pressure;Samples;Min_cycle;Max_cycle;Signal;HPM_P1;HPM_P2
2024/02/10 00:00:26;;;;;;;3.95;2.08;;;12.50;83.80;;;;;;5031227;28;20036;-81
2024/02/10 00:02:54;;;;;;;3.13;2.35;;;12.50;83.80;;;;;;4999185;28;20045;-90
2024/02/10 00:05:23;;;;;;;3.13;2.40;;;12.50;83.80;;;;;;5013781;28;20029;-81
2024/02/10 00:07:52;;;;;;;3.05;2.25;;;12.40;83.70;;;;;;5030127;28;20029;-85
2024/02/10 00:10:20;;;;;;;3.58;2.53;;;12.40;83.80;;;;;;5013662;28;20041;-86
2024/02/10 00:12:47;;;;;;;2.38;2.03;;;12.40;83.80;;;;;;5028888;28;20045;-86
2024/02/10 00:15:14;;;;;;;2.72;2.20;;;12.50;83.80;;;;;;5030790;28;20045;-89
2024/02/10 00:17:40;;;;;;;2.95;2.13;;;12.40;83.80;;;;;;5025547;28;20033;-81
2024/02/10 00:20:15;;;;;;;3.00;2.30;;;12.50;83.80;;;;;;5025574;28;20053;-89
2024/02/10 00:22:43;;;;;;;2.88;2.15;;;12.50;83.80;;;;;;5013557;28;20032;-85
2024/02/10 00:25:09;;;;;;;3.47;2.40;;;12.50;83.80;;;;;;5032512;28;20030;-85
2024/02/10 00:27:37;;;;;;;2.72;2.10;;;12.40;83.70;;;;;;5014170;28;20022;-93
2024/02/10 00:30:09;;;;;;;3.80;2.55;;;12.40;83.70;;;;;;5026408;28;20076;-89
2024/02/10 00:32:38;;;;;;;3.22;2.33;;;12.40;83.80;;;;;;5030816;28;20032;-87
2024/02/10 00:35:05;;;;;;;3.05;2.30;;;12.40;83.80;;;;;;5042010;28;20025;-89
2024/02/10 00:37:30;;;;;;;2.65;2.20;;;12.40;83.80;;;;;;5026643;28;20125;-84
2024/02/10 00:39:57;;;;;;;2.80;1.95;;;12.40;83.80;;;;;;5044411;28;20116;-92
2024/02/10 00:42:28;;;;;;;3.05;2.28;;;12.40;83.80;;;;;;5050367;28;20026;-92
2024/02/10 00:44:59;;;;;;;3.88;2.25;;;12.40;83.70;;;;;;5047764;28;20033;-80
2024/02/10 00:47:29;;;;;;;3.25;2.35;;;12.40;83.70;;;;;;5031921;28;20076;-80
2024/02/10 00:50:01;;;;;;;3.65;2.28;;;12.40;83.70;;;;;;5030675;28;20029;-92
2024/02/10 00:52:29;;;;;;;2.92;2.10;;;12.50;83.80;;;;;;5032998;28;20425;-85
2024/02/10 00:54:57;;;;;;;2.88;2.35;;;12.40;83.80;;;;;;5035177;28;20037;-94
2024/02/10 00:57:28;;;;;;;2.85;2.08;;;12.40;83.80;;;;;;5017664;28;20032;-85
2024/02/10 00:59:56;;;;;;;3.22;2.22;;;12.40;83.80;;;;;;5016520;28;20045;-89
2024/02/10 01:02:28;;;;;;;2.50;2.08;;;12.40;83.80;;;;;;5030040;28;20116;-80
2024/02/10 01:04:55;;;;;;;3.33;2.30;;;12.40;83.80;;;;;;5031852;28;20443;-80
2024/02/10 01:07:24;;;;;;;2.70;2.22;;;12.40;83.80;;;;;;5026826;28;20052;-91
2024/02/10 01:09:50;;;;;;;2.47;2.00;;;12.40;83.80;;;;;;5031804;28;20113;-85
2024/02/10 01:12:17;;;;;;;2.65;2.15;;;12.40;83.80;;;;;;5033604;28;20076;-85
2024/02/10 01:14:44;;;;;;;2.75;2.10;;;12.40;83.80;;;;;;5016219;28;20050;-89
2024/02/10 01:17:11;;;;;;;3.75;2.60;;;12.40;83.90;;;;;;5047765;28;20099;-87
2024/02/10 01:19:58;;;;;;;2.75;2.03;;;12.40;83.90;;;;;;5032345;28;20025;-90
2024/02/10 01:22:45;;;;;;;2.40;2.03;;;12.40;83.90;;;;;;5017929;28;20021;-81
2024/02/10 01:25:11;;;;;;;2.50;2.08;;;12.40;83.90;;;;;;5006083;28;20038;-90
2024/02/10 01:27:37;;;;;;;2.75;2.08;;;12.40;83.80;;;;;;4996287;28;20036;-90
2024/02/10 01:30:07;;;;;;;3.30;2.35;;;12.40;83.80;;;;;;5026463;28;20073;-88
2024/02/10 01:32:33;;;;;;;3.75;2.20;;;12.40;83.80;;;;;;5010194;28;20482;-80
2024/02/10 01:35:03;;;;;;;2.92;1.90;;;12.40;83.90;;;;;;5028786;28;20478;-80
2024/02/10 01:37:30;;;;;;;3.10;2.30;;;12.40;83.80;;;;;;4998800;28;20026;-90
2024/02/10 01:39:57;;;;;;;2.45;2.08;;;12.40;83.90;;;;;;5008761;28;20173;-80
2024/02/10 01:42:27;;;;;;;2.97;2.17;;;12.30;83.80;;;;;;5011732;28;20502;-88
2024/02/10 01:44:54;;;;;;;2.60;1.98;;;12.40;83.90;;;;;;5010581;28;20049;-85
2024/02/10 01:47:22;;;;;;;2.00;1.80;;;12.40;83.90;;;;;;5012280;28;20048;-89
2024/02/10 01:49:48;;;;;;;2.75;1.95;;;12.30;83.80;;;;;;4993373;28;20029;-90
2024/02/10 01:52:14;;;;;;;2.97;2.00;;;12.40;83.90;;;;;;5009410;28;20032;-90
2024/02/10 01:54:43;;;;;;;3.70;2.30;;;12.30;83.80;;;;;;4990441;28;20034;-90
2024/02/10 01:57:12;;;;;;;3.05;2.25;;;12.40;83.90;;;;;;5007109;28;20045;-80
2024/02/10 01:59:40;;;;;;;2.25;1.95;;;12.40;83.90;;;;;;5030073;28;20044;-90
2024/02/10 02:02:06;;;;;;;3.13;2.15;;;12.40;83.90;;;;;;5042706;28;20029;-90
2024/02/10 02:04:35;;;;;;;2.20;1.98;;;12.30;83.90;;;;;;5015232;28;20060;-89
2024/02/10 02:07:11;;;;;;;2.88;2.08;;;12.30;83.90;;;;;;5011412;28;20021;-90
2024/02/10 02:09:39;;;;;;;2.40;2.17;;;12.30;83.90;;;;;;5044771;28;20052;-85
2024/02/10 02:12:08;;;;;;;2.83;2.30;;;12.30;83.90;;;;;;5011985;28;20073;-86
2024/02/10 02:14:38;;;;;;;2.30;2.10;;;12.30;83.90;;;;;;5027095;28;20049;-86
2024/02/10 02:17:09;;;;;;;2.70;2.05;;;12.30;83.90;;;;;;5030437;28;20104;-88
2024/02/10 02:19:40;;;;;;;3.08;2.00;;;12.30;83.90;;;;;;5028832;28;20037;-80
2024/02/10 02:22:10;;;;;;;2.00;1.80;;;12.30;83.90;;;;;;5012700;28;20014;-88
2024/02/10 02:24:38;;;;;;;2.65;2.10;;;12.30;83.90;;;;;;5030054;28;20033;-88
2024/02/10 02:27:09;;;;;;;2.55;2.00;;;12.30;83.90;;;;;;5030169;28;20021;-92
2024/02/10 02:29:38;;;;;;;2.42;1.90;;;12.30;83.90;;;;;;5025185;28;20168;-92
2024/02/10 02:32:08;;;;;;;2.92;2.03;;;12.30;83.90;;;;;;5014563;28;20064;-79
2024/02/10 02:34:34;;;;;;;2.42;1.98;;;12.30;84.50;;;;;;5012580;28;20049;-89
2024/02/10 02:37:02;;;;;;;2.42;2.00;;;12.30;83.90;;;;;;5026224;28;20116;-80
2024/02/10 02:39:30;;;;;;;2.58;2.00;;;12.30;83.90;;;;;;5028667;28;20050;-80
2024/02/10 02:41:59;;;;;;;2.20;2.00;;;12.30;83.90;;;;;;5030719;28;20025;-88
2024/02/10 02:44:26;;;;;;;2.25;2.00;;;12.30;84.00;;;;;;5029225;28;20025;-85
2024/02/10 02:46:54;;;;;;;2.95;2.28;;;12.20;83.90;;;;;;5027871;28;20029;-85
2024/02/10 02:49:23;;;;;;;2.08;1.80;;;12.20;83.90;;;;;;5031528;28;20512;-80
2024/02/10 02:51:50;;;;;;;2.83;2.30;;;12.30;83.90;;;;;;5024721;28;20032;-80
2024/02/10 02:54:18;;;;;;;2.35;2.00;;;12.30;83.90;;;;;;5045831;28;20458;-81
2024/02/10 02:56:45;;;;;;;2.50;2.00;;;12.30;83.90;;;;;;5026132;28;20025;-87
2024/02/10 02:59:15;;;;;;;2.05;1.88;;;12.30;83.90;;;;;;5030808;28;20485;-80
2024/02/10 03:01:41;;;;;;;2.28;1.88;;;12.30;83.90;;;;;;5026511;28;20037;-85
2024/02/10 03:04:27;;;;;;;1.92;1.67;;;12.20;83.90;;;;;;5042040;28;20103;-91
2024/02/10 03:06:57;;;;;;;2.45;1.90;;;12.20;83.90;;;;;;5013671;28;20034;-88
2024/02/10 03:09:23;;;;;;;2.55;1.88;;;12.20;83.90;;;;;;5013564;28;20088;-91
2024/02/10 03:11:49;;;;;;;2.33;2.00;;;12.20;83.80;;;;;;5018197;28;20033;-88
2024/02/10 03:14:16;;;;;;;2.10;1.80;;;12.20;83.90;;;;;;5027807;28;20026;-88
2024/02/10 03:16:44;;;;;;;2.38;2.00;;;12.20;83.90;;;;;;5029705;28;20457;-80
2024/02/10 03:19:10;;;;;;;2.15;1.95;;;12.20;83.90;;;;;;4992288;28;20114;-91
2024/02/10 03:21:37;;;;;;;2.22;1.83;;;12.20;83.90;;;;;;5004972;28;20622;-84
2024/02/10 03:24:05;;;;;;;2.40;2.00;;;12.20;83.90;;;;;;5028503;28;20496;-80
2024/02/10 03:26:32;;;;;;;2.40;1.90;;;12.20;83.90;;;;;;4996148;28;20041;-80
2024/02/10 03:29:03;;;;;;;2.85;1.95;;;12.20;83.90;;;;;;5017499;28;20386;-87
2024/02/10 03:31:30;;;;;;;2.17;1.98;;;12.20;83.90;;;;;;5017997;28;20048;-85
2024/02/10 03:33:57;;;;;;;2.55;1.88;;;12.20;83.90;;;;;;5024137;28;20049;-80
2024/02/10 03:36:26;;;;;;;2.53;2.00;;;12.20;83.90;;;;;;5029462;28;20025;-80
2024/02/10 03:39:03;;;;;;;2.88;2.13;;;12.20;84.50;;;;;;5025760;28;20453;-85
2024/02/10 03:41:36;;;;;;;2.10;1.90;;;12.20;83.90;;;;;;5043528;28;20025;-88
2024/02/10 03:44:02;;;;;;;2.08;1.70;;;12.20;83.90;;;;;;5040108;28;20088;-84
2024/02/10 03:46:30;;;;;;;2.20;1.90;;;12.20;83.90;;;;;;5028509;28;20034;-91
2024/02/10 03:48:58;;;;;;;2.67;2.20;;;12.20;83.90;;;;;;5013964;28;20036;-92
2024/02/10 03:51:29;;;;;;;2.60;2.00;;;12.20;83.90;;;;;;5031523;28;20502;-80
2024/02/10 03:53:58;;;;;;;2.22;1.85;;;12.20;83.90;;;;;;5012551;28;20033;-80
2024/02/10 03:56:27;;;;;;;2.92;2.03;;;12.20;83.90;;;;;;5040759;28;20079;-84
2024/02/10 03:58:53;;;;;;;2.40;1.90;;;12.20;83.90;;;;;;5029931;28;20029;-88
2024/02/10 04:01:20;;;;;;;3.05;2.00;;;12.20;83.90;;;;;;5029631;28;20017;-92
2024/02/10 04:03:47;;;;;;;3.17;2.13;;;12.20;83.90;;;;;;5028571;28;20040;-90
2024/02/10 04:06:15;;;;;;;2.80;2.10;;;12.20;83.90;;;;;;5024930;28;20017;-90
2024/02/10 04:08:47;;;;;;;2.10;1.67;;;12.20;83.90;;;;;;5024780;28;20113;-84
2024/02/10 04:11:13;;;;;;;2.08;1.80;;;12.20;83.90;;;;;;5030489;28;20029;-90
2024/02/10 04:13:42;;;;;;;2.47;1.95;;;12.20;83.90;;;;;;5013690;28;20171;-84
2024/02/10 04:16:10;;;;;;;2.72;2.08;;;12.20;83.90;;;;;;5031677;28;20096;-89
2024/02/10 04:18:39;;;;;;;2.08;1.80;;;12.20;83.90;;;;;;5025077;28;20021;-84
2024/02/10 04:21:07;;;;;;;2.45;1.80;;;12.20;83.90;;;;;;5015977;28;20060;-84
2024/02/10 04:23:34;;;;;;;3.22;2.28;;;12.20;83.90;;;;;;5017215;28;20021;-90
2024/02/10 04:26:02;;;;;;;2.13;1.88;;;12.20;83.90;;;;;;5026370;28;20060;-81
2024/02/10 04:28:28;;;;;;;2.50;2.05;;;12.20;83.90;;;;;;5033224;28;20061;-90
2024/02/10 04:30:55;;;;;;;2.30;1.83;;;12.20;83.90;;;;;;5000240;28;20034;-90
2024/02/10 04:33:23;;;;;;;2.38;1.80;;;12.20;83.90;;;;;;5018202;28;20056;-90
2024/02/10 04:35:49;;;;;;;2.47;2.10;;;12.20;84.50;;;;;;5017221;28;20033;-89
2024/02/10 04:38:15;;;;;;;2.15;1.95;;;12.20;83.90;;;;;;5017115;28;20108;-84
2024/02/10 04:40:41;;;;;;;2.03;1.83;;;12.20;83.90;;;;;;5015739;28;20025;-80
2024/02/10 04:43:08;;;;;;;2.00;1.77;;;12.10;83.90;;;;;;5040664;28;20036;-84
2024/02/10 04:45:36;;;;;;;3.25;2.33;;;12.20;83.90;;;;;;5032656;28;20553;-84
2024/02/10 04:48:05;;;;;;;2.97;2.03;;;12.10;83.90;;;;;;5043416;28;20021;-84
2024/02/10 04:50:31;;;;;;;2.33;1.98;;;12.10;83.90;;;;;;5030273;28;20489;-84
2024/02/10 04:52:58;;;;;;;2.10;1.90;;;12.20;83.90;;;;;;5033327;28;20025;-84
2024/02/10 04:55:28;;;;;;;1.98;1.80;;;12.20;83.90;;;;;;5033708;28;20491;-84
2024/02/10 04:57:57;;;;;;;2.08;1.88;;;12.10;83.90;;;;;;5031902;28;20033;-90
2024/02/10 05:00:25;;;;;;;2.55;1.88;;;12.10;83.90;;;;;;5026052;28;20034;-80
2024/02/10 05:02:51;;;;;;;2.17;1.90;;;12.20;83.90;;;;;;5009583;28;20034;-80
2024/02/10 05:05:20;;;;;;;2.42;1.83;;;12.20;83.90;;;;;;5049868;28;20025;-90
2024/02/10 05:07:56;;;;;;;2.40;2.00;;;12.10;83.90;;;;;;5049074;28;20088;-89
2024/02/10 05:10:23;;;;;;;3.53;2.47;;;12.10;83.90;;;;;;5048063;28;20037;-90
2024/02/10 05:12:50;;;;;;;2.92;1.98;;;12.20;83.90;;;;;;5032492;28;20031;-84
2024/02/10 05:15:21;;;;;;;2.05;1.85;;;12.10;83.90;;;;;;5031201;28;20041;-89
2024/02/10 05:17:49;;;;;;;2.15;1.75;;;12.20;84.00;;;;;;5033300;28;20409;-79
2024/02/10 05:20:21;;;;;;;2.80;2.00;;;12.10;83.90;;;;;;5015159;28;20037;-90
2024/02/10 05:22:54;;;;;;;2.28;1.95;;;12.10;83.90;;;;;;5032466;28;20037;-90
2024/02/10 05:25:22;;;;;;;2.95;2.10;;;12.10;83.90;;;;;;5027457;28;20096;-80
2024/02/10 05:27:49;;;;;;;2.78;1.95;;;12.10;83.90;;;;;;5045306;28;20021;-90
2024/02/10 05:30:24;;;;;;;2.03;1.83;;;12.10;83.90;;;;;;5015494;28;20122;-80
2024/02/10 05:33:01;;;;;;;1.92;1.77;;;12.10;83.90;;;;;;5044105;28;20033;-90
2024/02/10 05:35:29;;;;;;;1.73;1.60;;;12.10;83.90;;;;;;5012815;28;20029;-90
2024/02/10 05:37:57;;;;;;;2.00;1.80;;;12.10;83.90;;;;;;5032677;28;20029;-90
2024/02/10 05:40:30;;;;;;;2.22;1.98;;;12.10;83.90;;;;;;5025635;28;20025;-89
2024/02/10 05:43:04;;;;;;;1.92;1.80;;;12.10;83.90;;;;;;5039400;28;20025;-80
2024/02/10 05:45:33;;;;;;;2.00;1.80;;;12.10;83.90;;;;;;5016344;28;20470;-90
2024/02/10 05:47:59;;;;;;;2.22;1.90;;;12.10;83.90;;;;;;5016404;28;20091;-90
2024/02/10 05:50:25;;;;;;;4.13;2.20;;;12.10;83.90;;;;;;5031557;28;20041;-80
2024/02/10 05:52:53;;;;;;;2.50;1.80;;;12.10;83.90;;;;;;5012397;28;20017;-90
2024/02/10 05:55:25;;;;;;;2.65;2.00;;;12.10;83.90;;;;;;5030416;28;20025;-80
2024/02/10 05:57:55;;;;;;;2.55;2.05;;;12.10;83.90;;;;;;5030741;28;20497;-80
2024/02/10 06:00:43;;;;;;;2.53;1.95;;;12.00;83.90;;;;;;5030944;28;20088;-90
2024/02/10 06:03:10;;;;;;;2.63;1.83;;;12.10;83.90;;;;;;5031521;28;20037;-80
2024/02/10 06:05:40;;;;;;;2.38;1.95;;;12.10;83.90;;;;;;5029334;28;20691;-80
2024/02/10 06:08:10;;;;;;;2.03;1.83;;;12.10;83.90;;;;;;5046679;28;20025;-79
2024/02/10 06:10:37;;;;;;;2.42;2.13;;;12.10;83.90;;;;;;5015235;28;20049;-90
2024/02/10 06:13:03;;;;;;;2.33;2.10;;;12.10;83.90;;;;;;5028725;28;20063;-90
2024/02/10 06:15:30;;;;;;;2.92;2.15;;;12.10;83.90;;;;;;5031902;28;20081;-84
2024/02/10 06:17:58;;;;;;;2.17;1.98;;;12.10;83.90;;;;;;5027514;28;20057;-90
2024/02/10 06:20:24;;;;;;;1.92;1.80;;;12.00;83.90;;;;;;5012506;28;20477;-80
2024/02/10 06:22:52;;;;;;;2.53;2.00;;;12.10;83.90;;;;;;5015033;28;20017;-90
2024/02/10 06:25:22;;;;;;;2.33;1.92;;;12.10;84.00;;;;;;5026982;28;20033;-80
2024/02/10 06:27:54;;;;;;;2.30;1.92;;;12.00;83.90;;;;;;5025151;28;20037;-84
2024/02/10 06:30:21;;;;;;;1.95;1.80;;;12.00;83.90;;;;;;5028721;28;20068;-89
2024/02/10 06:32:48;;;;;;;1.92;1.73;;;12.00;83.90;;;;;;5021830;28;20025;-89
2024/02/10 06:35:19;;;;;;;1.83;1.70;;;12.00;83.90;;;;;;5039546;28;20030;-79
2024/02/10 06:37:47;;;;;;;2.00;1.83;;;12.10;84.00;;;;;;5044428;28;20037;-89
2024/02/10 06:40:14;;;;;;;2.17;1.90;;;12.00;83.90;;;;;;5013393;28;20030;-89
2024/02/10 06:42:48;;;;;;;2.08;1.85;;;12.10;83.90;;;;;;5014588;28;20029;-88
2024/02/10 06:45:14;;;;;;;2.15;1.95;;;12.00;83.90;;;;;;5041033;28;20021;-80
2024/02/10 06:47:45;;;;;;;2.05;1.88;;;12.00;83.90;;;;;;5032170;28;20021;-89
2024/02/10 06:50:14;;;;;;;2.70;1.98;;;12.00;83.90;;;;;;5023753;28;20065;-80
2024/02/10 06:52:45;;;;;;;1.88;1.70;;;12.00;83.90;;;;;;5044598;28;20521;-80
2024/02/10 06:55:15;;;;;;;3.13;2.40;;;12.00;83.90;;;;;;5029470;28;20032;-85
2024/02/10 06:57:47;;;;;;;2.17;1.83;;;12.00;83.90;;;;;;5028994;28;20036;-84
2024/02/10 07:00:15;;;;;;;2.75;2.17;;;12.00;83.90;;;;;;5025468;28;20088;-84
2024/02/10 07:02:49;;;;;;;2.58;2.20;;;12.00;84.60;;;;;;5030472;28;20037;-90
2024/02/10 07:05:19;;;;;;;2.95;1.90;;;12.00;83.90;;;;;;5012749;28;20045;-80
2024/02/10 07:07:48;;;;;;;2.55;2.10;;;12.00;83.90;;;;;;5030959;28;20740;-90
2024/02/10 07:10:15;;;;;;;2.25;2.00;;;12.00;83.90;;;;;;5029536;28;20028;-90
2024/02/10 07:12:42;;;;;;;2.25;2.05;;;12.00;83.90;;;;;;5031044;28;20041;-89
2024/02/10 07:15:13;;;;;;;2.28;2.00;;;12.00;83.90;;;;;;5045333;28;20042;-89
2024/02/10 07:17:46;;;;;;;2.97;2.20;;;12.00;84.00;;;;;;5046860;28;20064;-89
2024/02/10 07:20:18;;;;;;;2.28;2.05;;;12.00;83.90;;;;;;5027805;28;20049;-90
2024/02/10 07:23:08;;;;;;;2.72;2.00;;;12.00;83.90;;;;;;5029591;28;20544;-84
2024/02/10 07:25:38;;;;;;;3.17;2.30;;;12.00;83.90;;;;;;5027028;28;20036;-85
2024/02/10 07:28:08;;;;;;;3.08;2.22;;;12.00;83.90;;;;;;5012613;28;20045;-89
2024/02/10 07:30:45;;;;;;;2.80;2.20;;;12.00;83.90;;;;;;5045787;28;20088;-84
2024/02/10 07:33:13;;;;;;;2.33;1.95;;;12.00;83.90;;;;;;5014354;28;20030;-80
2024/02/10 07:35:39;;;;;;;3.10;2.30;;;12.00;83.90;;;;;;5028991;28;20026;-84
2024/02/10 07:38:05;;;;;;;2.38;1.88;;;12.00;83.90;;;;;;5027629;28;20025;-89
2024/02/10 07:40:34;;;;;;;3.15;2.40;;;12.00;83.90;;;;;;5029750;28;20032;-80
2024/02/10 07:43:00;;;;;;;2.75;2.15;;;12.00;83.90;;;;;;5027287;28;20106;-80
2024/02/10 07:45:30;;;;;;;2.72;2.30;;;12.00;83.90;;;;;;5013975;28;20112;-89
2024/02/10 07:47:57;;;;;;;3.05;2.13;;;12.00;83.90;;;;;;5014379;28;20083;-90
2024/02/10 07:50:23;;;;;;;3.22;2.42;;;12.00;83.90;;;;;;5016462;28;20619;-81
2024/02/10 07:52:53;;;;;;;3.13;2.28;;;12.00;83.90;;;;;;5016670;28;20036;-89
2024/02/10 07:55:20;;;;;;;2.67;2.15;;;12.00;83.90;;;;;;5017373;28;20025;-91
2024/02/10 07:57:46;;;;;;;2.75;2.25;;;12.00;83.90;;;;;;5043817;28;20026;-80
2024/02/10 08:00:16;;;;;;;3.28;2.28;;;12.00;83.90;;;;;;5030938;28;20504;-89
2024/02/10 08:02:44;;;;;;;2.90;2.22;;;12.00;84.50;;;;;;5026722;28;20105;-90
2024/02/10 08:05:12;;;;;;;2.72;2.30;;;12.00;83.90;;;;;;5034479;28;20025;-90
2024/02/10 08:07:38;;;;;;;2.85;2.33;;;12.00;83.90;;;;;;5014805;28;20049;-90
2024/02/10 08:10:06;;;;;;;2.75;2.22;;;12.00;83.80;;;;;;5033398;28;20372;-86
2024/02/10 08:12:38;;;;;;;2.92;2.40;;;12.00;83.90;;;;;;5028224;28;20057;-90
2024/02/10 08:15:08;;;;;;;3.15;2.28;;;12.10;83.90;;;;;;5016562;28;20113;-91
2024/02/10 08:17:37;;;;;;;3.38;2.40;;;12.00;83.80;;;;;;5032782;28;20029;-91
2024/02/10 08:20:28;;;;;;;2.90;2.30;;;12.00;83.80;;;;;;5031969;28;20048;-90
2024/02/10 08:22:54;;;;;;;2.83;2.30;;;12.00;83.90;;;;;;5015620;28;20056;-92
2024/02/10 08:25:20;;;;;;;3.20;2.50;;;12.10;83.80;;;;;;5000297;28;20041;-86
2024/02/10 08:27:48;;;;;;;2.85;2.40;;;12.10;83.80;;;;;;5033827;28;20061;-91
2024/02/10 08:30:17;;;;;;;2.97;2.50;;;12.00;83.80;;;;;;5005260;28;20036;-80
2024/02/10 08:32:43;;;;;;;2.65;2.30;;;12.10;83.80;;;;;;4998869;28;20112;-90
2024/02/10 08:35:09;;;;;;;3.22;2.50;;;12.10;83.80;;;;;;5015114;28;20061;-80
2024/02/10 08:37:34;;;;;;;3.05;2.45;;;12.10;84.50;;;;;;4998940;28;20398;-86
2024/02/10 08:40:02;;;;;;;3.05;2.45;;;12.10;83.90;;;;;;5000145;28;20075;-92
2024/02/10 08:42:29;;;;;;;3.05;2.28;;;12.10;83.90;;;;;;5033383;28;20071;-92
2024/02/10 08:44:55;;;;;;;2.92;2.33;;;12.10;83.80;;;;;;4998293;28;20096;-89
2024/02/10 08:47:22;;;;;;;3.83;2.60;;;12.10;83.80;;;;;;5014664;28;20026;-80
2024/02/10 08:49:49;;;;;;;2.85;2.33;;;12.10;83.80;;;;;;4998166;28;20033;-92
2024/02/10 08:52:19;;;;;;;2.45;2.20;;;12.10;83.80;;;;;;5028818;28;20040;-93
2024/02/10 08:54:46;;;;;;;2.92;2.38;;;12.10;83.80;;;;;;5011479;28;20050;-81
2024/02/10 08:57:15;;;;;;;3.30;2.45;;;12.10;83.80;;;;;;5026389;28;20042;-87
2024/02/10 08:59:43;;;;;;;3.08;2.63;;;12.10;83.80;;;;;;5032790;28;20033;-87
2024/02/10 09:02:11;;;;;;;3.55;2.45;;;12.10;83.80;;;;;;5033222;28;20018;-92
2024/02/10 09:04:39;;;;;;;2.50;2.10;;;12.10;83.80;;;;;;5030158;28;20630;-87
2024/02/10 09:07:12;;;;;;;3.20;2.50;;;12.10;83.80;;;;;;5015356;28;20029;-90
2024/02/10 09:09:40;;;;;;;3.63;2.50;;;12.10;83.80;;;;;;5028361;28;20036;-88
2024/02/10 09:12:07;;;;;;;3.25;2.40;;;12.20;83.80;;;;;;5016445;28;20073;-90
2024/02/10 09:14:35;;;;;;;3.08;2.35;;;12.10;83.80;;;;;;5045079;28;20462;-96
2024/02/10 09:17:03;;;;;;;3.80;2.80;;;12.20;83.80;;;;;;5013312;28;20042;-86
2024/02/10 09:19:29;;;;;;;3.13;2.53;;;12.20;83.80;;;;;;5031804;28;20029;-86
2024/02/10 09:22:03;;;;;;;3.55;2.55;;;12.20;83.80;;;;;;5031453;28;20500;-89
2024/02/10 09:24:31;;;;;;;3.22;2.50;;;12.20;83.80;;;;;;5031871;28;20033;-81
2024/02/10 09:26:56;;;;;;;3.22;2.53;;;12.20;83.80;;;;;;5015596;28;20036;-80
2024/02/10 09:29:26;;;;;;;3.65;2.65;;;12.20;83.80;;;;;;5031773;28;20037;-80
2024/02/10 09:32:11;;;;;;;3.20;2.40;;;12.20;83.80;;;;;;5011291;28;20064;-89
2024/02/10 09:34:46;;;;;;;3.13;2.42;;;12.20;83.80;;;;;;5047529;28;20064;-92
2024/02/10 09:37:14;;;;;;;2.70;2.30;;;12.20;83.80;;;;;;5014950;28;20493;-80
2024/02/10 09:39:41;;;;;;;3.13;2.40;;;12.30;83.80;;;;;;5014094;28;20041;-90
2024/02/10 09:42:21;;;;;;;3.00;2.45;;;12.30;83.80;;;;;;5031307;28;20025;-89
2024/02/10 09:44:49;;;;;;;2.72;2.35;;;12.30;83.90;;;;;;4997602;28;20061;-87
2024/02/10 09:47:16;;;;;;;3.38;2.72;;;12.30;83.80;;;;;;4996691;28;20049;-90
2024/02/10 09:49:45;;;;;;;3.22;2.42;;;12.30;83.80;;;;;;5012159;28;20184;-81
2024/02/10 09:52:11;;;;;;;3.25;2.60;;;12.30;83.80;;;;;;5008399;28;20049;-88
2024/02/10 09:54:39;;;;;;;4.10;2.60;;;12.30;83.80;;;;;;4995151;28;20036;-89
2024/02/10 09:57:08;;;;;;;2.78;2.40;;;12.30;83.80;;;;;;4999295;28;20037;-89
2024/02/10 09:59:42;;;;;;;3.45;2.70;;;12.40;83.90;;;;;;5025362;28;20029;-94
2024/02/10 10:02:12;;;;;;;;;;;12.40;83.90;;;;;;5013362;28;20112;-88
2024/02/10 10:04:38;;;;;;;2.58;2.00;;;12.40;83.70;;;;;;5007307;28;19916;-92
2024/02/10 10:07:08;;;;;;;3.20;2.38;;;12.40;83.70;;;;;;5030814;28;20100;-84
2024/02/10 10:09:34;;;;;;;3.65;2.70;;;12.40;83.70;;;;;;5012189;28;20033;-91
2024/02/10 10:12:00;;;;;;;3.65;2.88;;;12.50;83.70;;;;;;4990806;28;20075;-88
2024/02/10 10:14:26;;;;;;;3.00;2.58;;;12.50;83.80;;;;;;5031092;28;20041;-91
2024/02/10 10:17:03;;;;;;;4.30;2.95;;;12.50;83.80;;;;;;5025735;28;20025;-90
2024/02/10 10:19:30;;;;;;;3.40;2.50;;;12.50;83.80;;;;;;5014820;28;20044;-88
2024/02/10 10:21:56;;;;;;;3.38;2.60;;;12.50;83.70;;;;;;5000279;28;20033;-90
2024/02/10 10:24:22;;;;;;;3.53;2.80;;;12.50;83.70;;;;;;5015473;28;20030;-90
2024/02/10 10:26:53;;;;;;;3.33;2.50;;;12.60;83.80;;;;;;5030573;28;20039;-81
2024/02/10 10:29:20;;;;;;;3.58;2.88;;;12.60;84.40;;;;;;5030253;28;20022;-91
2024/02/10 10:31:49;;;;;;;3.13;2.50;;;12.60;83.70;;;;;;5044218;28;20033;-81
2024/02/10 10:34:20;;;;;;;3.30;2.38;;;12.70;83.80;;;;;;5022908;28;20018;-81
2024/02/10 10:36:52;;;;;;;3.13;2.53;;;12.70;83.70;;;;;;5029904;28;20078;-89
2024/02/10 10:39:22;;;;;;;4.10;2.90;;;12.70;83.70;;;;;;5026931;28;20033;-91
2024/02/10 10:41:49;;;;;;;3.20;2.30;;;12.70;83.70;;;;;;5031302;28;20171;-89
2024/02/10 10:44:17;;;;;;;3.10;2.50;;;12.70;83.60;;;;;;5031520;28;20025;-88
2024/02/10 10:46:43;;;;;;;3.78;2.67;;;12.80;83.70;;;;;;5016307;28;20033;-89
2024/02/10 10:49:09;;;;;;;3.08;2.40;;;12.80;83.60;;;;;;5025755;28;20033;-88
2024/02/10 10:52:01;;;;;;;3.15;2.45;;;12.80;83.60;;;;;;5013455;28;20021;-81
2024/02/10 10:54:32;;;;;;;3.13;2.38;;;12.80;83.60;;;;;;5043936;28;20037;-85
2024/02/10 10:57:05;;;;;;;3.40;2.65;;;12.90;83.60;;;;;;5040495;28;20017;-85
2024/02/10 10:59:35;;;;;;;2.92;2.38;;;12.90;83.60;;;;;;5014811;28;20034;-81
2024/02/10 11:02:12;;;;;;;3.60;2.60;;;12.90;83.50;;;;;;5047355;28;20119;-90
2024/02/10 11:04:39;;;;;;;2.90;2.42;;;13.00;83.60;;;;;;5047061;28;20061;-80
2024/02/10 11:07:10;;;;;;;3.22;2.60;;;13.00;83.50;;;;;;5013904;28;20092;-81
2024/02/10 11:09:48;;;;;;;3.55;2.72;;;13.00;83.60;;;;;;5028696;28;20090;-93
2024/02/10 11:12:48;;;;;;;3.38;2.47;;;13.00;83.60;;;;;;5013899;28;20033;-95
2024/02/10 11:15:20;;;;;;;3.13;2.55;;;13.00;83.50;;;;;;5046118;28;20134;-92
2024/02/10 11:18:02;;;;;;;3.63;2.50;;;13.10;83.50;;;;;;5053210;28;20058;-91
2024/02/10 11:20:34;;;;;;;2.50;2.30;;;13.10;83.60;;;;;;5056981;28;20032;-79
2024/02/10 11:23:11;;;;;;;3.25;2.42;;;13.10;83.50;;;;;;5031177;28;20040;-88
2024/02/10 11:25:39;;;;;;;3.90;2.85;;;13.20;83.60;;;;;;5048494;28;20036;-88
2024/02/10 11:28:11;;;;;;;4.05;3.10;;;13.20;83.50;;;;;;5059061;28;20502;-91
2024/02/10 11:30:38;;;;;;;2.83;2.28;;;13.20;83.50;;;;;;5025748;28;20162;-81
2024/02/10 11:33:05;;;;;;;4.05;2.70;;;13.20;83.40;;;;;;5024390;28;20037;-85
2024/02/10 11:35:35;;;;;;;2.88;2.30;;;13.20;83.40;;;;;;5054801;28;20032;-89
2024/02/10 11:38:05;;;;;;;3.20;2.45;;;13.30;83.40;;;;;;5049915;28;20522;-88
2024/02/10 11:40:32;;;;;;;3.22;2.30;;;13.30;83.50;;;;;;5054438;28;20060;-89
2024/02/10 11:42:59;;;;;;;3.08;2.75;;;13.40;83.50;;;;;;5034660;28;20025;-88
2024/02/10 11:45:30;;;;;;;2.97;2.45;;;13.40;83.40;;;;;;5039715;28;20031;-89
2024/02/10 11:47:58;;;;;;;3.53;2.53;;;13.40;83.40;;;;;;5047296;28;20480;-82
2024/02/10 11:50:25;;;;;;;3.55;2.35;;;13.40;83.40;;;;;;5069709;28;20119;-81
2024/02/10 11:52:53;;;;;;;3.15;2.45;;;13.40;83.30;;;;;;5033811;28;20128;-82
2024/02/10 11:55:20;;;;;;;3.00;2.58;;;13.50;83.40;;;;;;5050314;28;20030;-87
2024/02/10 11:57:47;;;;;;;3.58;2.63;;;13.50;83.30;;;;;;5050783;28;20040;-81
2024/02/10 12:00:14;;;;;;;3.20;2.40;;;13.50;83.40;;;;;;5030946;28;20034;-86
2024/02/10 12:02:40;;;;;;;2.50;2.20;;;13.60;83.40;;;;;;5029148;28;20084;-93
2024/02/10 12:05:08;;;;;;;3.22;2.60;;;13.60;83.30;;;;;;5026698;28;20037;-81
2024/02/10 12:07:38;;;;;;;3.15;2.30;;;13.60;83.30;;;;;;5025995;28;20033;-81
2024/02/10 12:10:06;;;;;;;2.40;2.20;;;13.70;83.30;;;;;;5032432;28;20084;-90
2024/02/10 12:12:34;;;;;;;3.05;2.33;;;13.70;83.30;;;;;;5030037;28;20116;-88
2024/02/10 12:15:03;;;;;;;3.13;2.08;;;13.70;83.20;;;;;;5027609;28;20099;-87
2024/02/10 12:17:30;;;;;;;3.33;2.35;;;13.70;83.20;;;;;;5022941;28;20117;-82
2024/02/10 12:19:59;;;;;;;2.97;2.28;;;13.80;83.20;;;;;;5024172;28;20042;-85
2024/02/10 12:22:27;;;;;;;2.78;2.30;;;13.80;83.20;;;;;;5023768;28;20063;-81
2024/02/10 12:24:55;;;;;;;2.97;2.50;;;13.80;83.10;;;;;;5026938;28;20084;-81
2024/02/10 12:27:25;;;;;;;2.83;2.13;;;13.80;83.10;;;;;;5011327;28;20103;-96
2024/02/10 12:29:54;;;;;;;2.58;1.98;;;13.90;83.20;;;;;;5012293;28;20030;-81
2024/02/10 12:32:22;;;;;;;2.97;2.10;;;13.90;83.10;;;;;;5011390;28;20080;-93
2024/02/10 12:34:49;;;;;;;2.80;2.10;;;13.90;83.10;;;;;;5061198;28;20030;-94
2024/02/10 12:37:18;;;;;;;2.55;2.20;;;13.90;83.10;;;;;;5033146;28;20022;-80
2024/02/10 12:39:44;;;;;;;2.38;1.95;;;14.00;83.10;;;;;;5034348;28;20143;-87
2024/02/10 12:42:10;;;;;;;3.03;2.55;;;14.00;83.00;;;;;;5033772;28;20022;-83
2024/02/10 12:44:37;;;;;;;2.40;2.10;;;14.10;83.10;;;;;;5011828;28;20037;-82
2024/02/10 12:47:04;;;;;;;2.35;2.05;;;14.00;83.00;;;;;;5029841;28;20022;-88
2024/02/10 12:49:30;;;;;;;2.25;1.90;;;14.10;83.00;;;;;;5016983;28;20044;-92
2024/02/10 12:51:56;;;;;;;2.38;2.17;;;14.10;83.00;;;;;;5039062;28;20025;-88
2024/02/10 12:54:27;;;;;;;2.92;2.40;;;14.20;83.00;;;;;;5032932;28;20537;-82
2024/02/10 12:56:54;;;;;;;2.55;2.17;;;14.20;83.00;;;;;;5028438;28;20556;-89